sensor_id;sensor_type;location;lat;lon;timestamp;P1;durP1;ratioP1;P2;durP2;ratioP2
11921;SDS011;6021;51.182;3.160;2023-07-09T00:02:05;40.93;;;36.77;;
11921;SDS011;6021;51.182;3.160;2023-07-09T00:04:33;33.77;;;30.30;;
11921;SDS011;6021;51.182;3.160;2023-07-09T00:07:02;32.80;;;29.40;;
11921;SDS011;6021;51.182;3.160;2023-07-09T00:09:31;33.43;;;30.03;;
11921;SDS011;6021;51.182;3.160;2023-07-09T00:11:59;32.23;;;29.13;;
11921;SDS011;6021;51.182;3.160;2023-07-09T00:14:28;36.77;;;32.90;;
11921;SDS011;6021;51.182;3.160;2023-07-09T00:16:56;28.43;;;25.63;;
11921;SDS011;6021;51.182;3.160;2023-07-09T00:19:24;28.20;;;25.40;;
11921;SDS011;6021;51.182;3.160;2023-07-09T00:21:56;32.13;;;29.03;;
11921;SDS011;6021;51.182;3.160;2023-07-09T00:24:24;26.53;;;23.93;;
11921;SDS011;6021;51.182;3.160;2023-07-09T00:26:53;25.40;;;22.93;;
11921;SDS011;6021;51.182;3.160;2023-07-09T00:29:22;27.57;;;24.63;;
11921;SDS011;6021;51.182;3.160;2023-07-09T00:31:50;27.00;;;24.30;;
11921;SDS011;6021;51.182;3.160;2023-07-09T00:34:18;24.13;;;21.60;;
11921;SDS011;6021;51.182;3.160;2023-07-09T00:36:48;24.47;;;21.97;;
11921;SDS011;6021;51.182;3.160;2023-07-09T00:39:18;22.80;;;20.40;;
11921;SDS011;6021;51.182;3.160;2023-07-09T00:41:50;23.43;;;21.00;;
11921;SDS011;6021;51.182;3.160;2023-07-09T00:44:29;23.23;;;20.90;;
11921;SDS011;6021;51.182;3.160;2023-07-09T00:49:33;20.30;;;18.30;;
11921;SDS011;6021;51.182;3.160;2023-07-09T00:52:05;24.40;;;21.90;;
11921;SDS011;6021;51.182;3.160;2023-07-09T00:54:35;21.23;;;19.03;;
11921;SDS011;6021;51.182;3.160;2023-07-09T00:57:10;19.20;;;17.20;;
11921;SDS011;6021;51.182;3.160;2023-07-09T00:59:41;18.37;;;16.57;;
11921;SDS011;6021;51.182;3.160;2023-07-09T01:02:11;18.97;;;17.07;;
11921;SDS011;6021;51.182;3.160;2023-07-09T01:04:39;18.10;;;16.40;;
11921;SDS011;6021;51.182;3.160;2023-07-09T01:07:08;19.67;;;17.00;;
11921;SDS011;6021;51.182;3.160;2023-07-09T01:09:37;17.37;;;15.67;;
11921;SDS011;6021;51.182;3.160;2023-07-09T01:12:08;25.37;;;22.77;;
11921;SDS011;6021;51.182;3.160;2023-07-09T01:14:37;20.77;;;18.67;;
11921;SDS011;6021;51.182;3.160;2023-07-09T01:17:06;18.60;;;16.70;;
11921;SDS011;6021;51.182;3.160;2023-07-09T01:19:37;23.87;;;21.57;;
11921;SDS011;6021;51.182;3.160;2023-07-09T01:22:12;21.63;;;19.47;;
11921;SDS011;6021;51.182;3.160;2023-07-09T01:24:48;22.03;;;19.83;;
11921;SDS011;6021;51.182;3.160;2023-07-09T01:27:35;18.37;;;16.67;;
11921;SDS011;6021;51.182;3.160;2023-07-09T01:30:07;21.53;;;19.37;;
11921;SDS011;6021;51.182;3.160;2023-07-09T01:32:37;19.90;;;17.90;;
11921;SDS011;6021;51.182;3.160;2023-07-09T01:35:09;21.97;;;19.73;;
11921;SDS011;6021;51.182;3.160;2023-07-09T01:37:39;23.30;;;20.73;;
11921;SDS011;6021;51.182;3.160;2023-07-09T01:40:09;24.30;;;21.90;;
11921;SDS011;6021;51.182;3.160;2023-07-09T01:42:39;26.40;;;23.87;;
11921;SDS011;6021;51.182;3.160;2023-07-09T01:45:08;23.53;;;21.13;;
11921;SDS011;6021;51.182;3.160;2023-07-09T01:47:39;21.50;;;19.47;;
11921;SDS011;6021;51.182;3.160;2023-07-09T01:50:12;31.17;;;27.97;;
11921;SDS011;6021;51.182;3.160;2023-07-09T01:52:42;22.53;;;20.43;;
11921;SDS011;6021;51.182;3.160;2023-07-09T01:55:12;27.43;;;24.63;;
11921;SDS011;6021;51.182;3.160;2023-07-09T01:57:43;26.80;;;24.00;;
11921;SDS011;6021;51.182;3.160;2023-07-09T02:00:13;26.30;;;23.60;;
11921;SDS011;6021;51.182;3.160;2023-07-09T02:02:44;22.63;;;20.23;;
11921;SDS011;6021;51.182;3.160;2023-07-09T02:05:14;23.50;;;21.17;;
11921;SDS011;6021;51.182;3.160;2023-07-09T02:07:45;23.37;;;21.03;;
11921;SDS011;6021;51.182;3.160;2023-07-09T02:10:15;22.57;;;20.27;;
11921;SDS011;6021;51.182;3.160;2023-07-09T02:12:45;25.17;;;22.67;;
11921;SDS011;6021;51.182;3.160;2023-07-09T02:15:14;28.80;;;25.97;;
11921;SDS011;6021;51.182;3.160;2023-07-09T02:17:43;23.67;;;21.47;;
11921;SDS011;6021;51.182;3.160;2023-07-09T02:20:12;23.10;;;20.80;;
11921;SDS011;6021;51.182;3.160;2023-07-09T02:22:41;24.23;;;22.00;;
11921;SDS011;6021;51.182;3.160;2023-07-09T02:25:11;26.70;;;24.10;;
11921;SDS011;6021;51.182;3.160;2023-07-09T02:27:40;29.07;;;26.17;;
11921;SDS011;6021;51.182;3.160;2023-07-09T02:30:08;27.43;;;24.53;;
11921;SDS011;6021;51.182;3.160;2023-07-09T02:32:37;25.67;;;23.07;;
11921;SDS011;6021;51.182;3.160;2023-07-09T02:35:07;22.93;;;20.63;;
11921;SDS011;6021;51.182;3.160;2023-07-09T02:37:36;23.73;;;21.30;;
11921;SDS011;6021;51.182;3.160;2023-07-09T02:40:05;23.73;;;21.33;;
11921;SDS011;6021;51.182;3.160;2023-07-09T02:42:35;26.93;;;24.13;;
11921;SDS011;6021;51.182;3.160;2023-07-09T02:45:03;23.87;;;21.40;;
11921;SDS011;6021;51.182;3.160;2023-07-09T02:47:32;26.03;;;23.40;;
11921;SDS011;6021;51.182;3.160;2023-07-09T02:50:00;26.03;;;23.40;;
11921;SDS011;6021;51.182;3.160;2023-07-09T02:52:29;25.37;;;22.80;;
11921;SDS011;6021;51.182;3.160;2023-07-09T02:54:58;25.73;;;23.23;;
11921;SDS011;6021;51.182;3.160;2023-07-09T02:57:28;26.30;;;23.33;;
11921;SDS011;6021;51.182;3.160;2023-07-09T02:59:56;25.77;;;23.20;;
11921;SDS011;6021;51.182;3.160;2023-07-09T03:02:26;25.23;;;22.70;;
11921;SDS011;6021;51.182;3.160;2023-07-09T03:05:03;25.13;;;22.53;;
11921;SDS011;6021;51.182;3.160;2023-07-09T03:07:27;24.23;;;21.73;;
11921;SDS011;6021;51.182;3.160;2023-07-09T03:09:56;26.07;;;23.27;;
11921;SDS011;6021;51.182;3.160;2023-07-09T03:12:24;23.30;;;20.87;;
11921;SDS011;6021;51.182;3.160;2023-07-09T03:14:52;23.50;;;21.10;;
11921;SDS011;6021;51.182;3.160;2023-07-09T03:17:21;24.13;;;21.63;;
11921;SDS011;6021;51.182;3.160;2023-07-09T03:19:49;24.40;;;21.80;;
11921;SDS011;6021;51.182;3.160;2023-07-09T03:22:18;23.57;;;21.10;;
11921;SDS011;6021;51.182;3.160;2023-07-09T03:24:46;19.57;;;17.57;;
11921;SDS011;6021;51.182;3.160;2023-07-09T03:27:14;20.07;;;17.87;;
11921;SDS011;6021;51.182;3.160;2023-07-09T03:29:43;20.43;;;18.37;;
11921;SDS011;6021;51.182;3.160;2023-07-09T03:32:11;20.13;;;18.03;;
11921;SDS011;6021;51.182;3.160;2023-07-09T03:34:40;19.70;;;17.70;;
11921;SDS011;6021;51.182;3.160;2023-07-09T03:37:08;20.30;;;18.30;;
11921;SDS011;6021;51.182;3.160;2023-07-09T03:39:37;30.43;;;27.10;;
11921;SDS011;6021;51.182;3.160;2023-07-09T03:42:05;26.70;;;24.00;;
11921;SDS011;6021;51.182;3.160;2023-07-09T03:44:33;23.83;;;21.37;;
11921;SDS011;6021;51.182;3.160;2023-07-09T03:47:02;23.00;;;20.23;;
11921;SDS011;6021;51.182;3.160;2023-07-09T03:49:31;19.63;;;17.63;;
11921;SDS011;6021;51.182;3.160;2023-07-09T03:52:00;20.00;;;18.00;;
11921;SDS011;6021;51.182;3.160;2023-07-09T03:54:31;20.57;;;18.57;;
11921;SDS011;6021;51.182;3.160;2023-07-09T03:56:59;19.87;;;17.97;;
11921;SDS011;6021;51.182;3.160;2023-07-09T03:59:28;19.47;;;17.50;;
11921;SDS011;6021;51.182;3.160;2023-07-09T04:01:56;18.63;;;16.83;;
11921;SDS011;6021;51.182;3.160;2023-07-09T04:04:25;17.87;;;16.13;;
11921;SDS011;6021;51.182;3.160;2023-07-09T04:06:53;17.60;;;15.90;;
11921;SDS011;6021;51.182;3.160;2023-07-09T04:09:21;16.97;;;15.40;;
11921;SDS011;6021;51.182;3.160;2023-07-09T04:11:50;17.53;;;15.87;;
11921;SDS011;6021;51.182;3.160;2023-07-09T04:14:18;16.27;;;14.67;;
11921;SDS011;6021;51.182;3.160;2023-07-09T04:16:46;17.57;;;15.77;;
11921;SDS011;6021;51.182;3.160;2023-07-09T04:19:15;16.10;;;14.60;;
11921;SDS011;6021;51.182;3.160;2023-07-09T04:21:43;14.80;;;13.40;;
11921;SDS011;6021;51.182;3.160;2023-07-09T04:24:13;13.97;;;12.67;;
11921;SDS011;6021;51.182;3.160;2023-07-09T04:26:43;14.67;;;13.17;;
11921;SDS011;6021;51.182;3.160;2023-07-09T04:29:11;14.10;;;12.70;;
11921;SDS011;6021;51.182;3.160;2023-07-09T04:31:40;13.80;;;12.50;;
11921;SDS011;6021;51.182;3.160;2023-07-09T04:34:09;18.70;;;16.80;;
11921;SDS011;6021;51.182;3.160;2023-07-09T04:36:37;14.73;;;13.27;;
11921;SDS011;6021;51.182;3.160;2023-07-09T04:39:06;13.97;;;12.67;;
11921;SDS011;6021;51.182;3.160;2023-07-09T04:41:34;14.07;;;12.77;;
11921;SDS011;6021;51.182;3.160;2023-07-09T04:44:03;13.63;;;12.33;;
11921;SDS011;6021;51.182;3.160;2023-07-09T04:46:31;12.80;;;11.60;;
11921;SDS011;6021;51.182;3.160;2023-07-09T04:49:00;13.13;;;11.93;;
11921;SDS011;6021;51.182;3.160;2023-07-09T04:51:28;12.17;;;11.07;;
11921;SDS011;6021;51.182;3.160;2023-07-09T04:53:56;14.07;;;12.43;;
11921;SDS011;6021;51.182;3.160;2023-07-09T04:56:25;12.10;;;11.00;;
11921;SDS011;6021;51.182;3.160;2023-07-09T04:58:55;11.47;;;10.37;;
11921;SDS011;6021;51.182;3.160;2023-07-09T05:01:23;13.53;;;12.13;;
11921;SDS011;6021;51.182;3.160;2023-07-09T05:03:52;12.73;;;11.00;;
11921;SDS011;6021;51.182;3.160;2023-07-09T05:06:21;11.17;;;9.50;;
11921;SDS011;6021;51.182;3.160;2023-07-09T05:08:49;9.53;;;8.60;;
11921;SDS011;6021;51.182;3.160;2023-07-09T05:11:18;9.80;;;8.83;;
11921;SDS011;6021;51.182;3.160;2023-07-09T05:13:46;11.00;;;9.10;;
11921;SDS011;6021;51.182;3.160;2023-07-09T05:16:15;8.97;;;8.03;;
11921;SDS011;6021;51.182;3.160;2023-07-09T05:18:44;8.70;;;7.80;;
11921;SDS011;6021;51.182;3.160;2023-07-09T05:21:13;10.33;;;7.27;;
11921;SDS011;6021;51.182;3.160;2023-07-09T05:23:41;9.97;;;6.73;;
11921;SDS011;6021;51.182;3.160;2023-07-09T05:26:10;9.20;;;6.83;;
11921;SDS011;6021;51.182;3.160;2023-07-09T05:28:39;8.73;;;6.57;;
11921;SDS011;6021;51.182;3.160;2023-07-09T05:31:07;8.40;;;6.80;;
11921;SDS011;6021;51.182;3.160;2023-07-09T05:33:36;7.97;;;6.13;;
11921;SDS011;6021;51.182;3.160;2023-07-09T05:36:04;7.17;;;5.77;;
11921;SDS011;6021;51.182;3.160;2023-07-09T05:38:33;7.93;;;5.90;;
11921;SDS011;6021;51.182;3.160;2023-07-09T05:41:02;6.87;;;5.53;;
11921;SDS011;6021;51.182;3.160;2023-07-09T05:43:31;7.53;;;5.23;;
11921;SDS011;6021;51.182;3.160;2023-07-09T05:46:01;9.67;;;5.90;;
11921;SDS011;6021;51.182;3.160;2023-07-09T05:48:30;10.80;;;5.67;;
11921;SDS011;6021;51.182;3.160;2023-07-09T05:51:00;7.90;;;5.30;;
11921;SDS011;6021;51.182;3.160;2023-07-09T05:53:28;8.17;;;5.60;;
11921;SDS011;6021;51.182;3.160;2023-07-09T05:55:58;7.03;;;5.50;;
11921;SDS011;6021;51.182;3.160;2023-07-09T05:58:27;7.43;;;4.70;;
11921;SDS011;6021;51.182;3.160;2023-07-09T06:00:55;7.67;;;4.87;;
11921;SDS011;6021;51.182;3.160;2023-07-09T06:03:24;9.67;;;5.30;;
11921;SDS011;6021;51.182;3.160;2023-07-09T06:05:54;6.93;;;4.93;;
11921;SDS011;6021;51.182;3.160;2023-07-09T06:08:23;6.57;;;4.73;;
11921;SDS011;6021;51.182;3.160;2023-07-09T06:10:53;6.33;;;4.60;;
11921;SDS011;6021;51.182;3.160;2023-07-09T06:13:23;6.43;;;4.40;;
11921;SDS011;6021;51.182;3.160;2023-07-09T06:15:52;7.53;;;4.70;;
11921;SDS011;6021;51.182;3.160;2023-07-09T06:18:22;8.90;;;4.47;;
11921;SDS011;6021;51.182;3.160;2023-07-09T06:20:53;10.93;;;5.53;;
11921;SDS011;6021;51.182;3.160;2023-07-09T06:23:23;9.23;;;5.13;;
11921;SDS011;6021;51.182;3.160;2023-07-09T06:25:52;8.50;;;5.60;;
11921;SDS011;6021;51.182;3.160;2023-07-09T06:28:22;7.40;;;4.60;;
11921;SDS011;6021;51.182;3.160;2023-07-09T06:30:51;6.67;;;4.93;;
11921;SDS011;6021;51.182;3.160;2023-07-09T06:33:20;7.37;;;4.63;;
11921;SDS011;6021;51.182;3.160;2023-07-09T06:35:54;7.60;;;4.77;;
11921;SDS011;6021;51.182;3.160;2023-07-09T06:38:20;9.73;;;4.90;;
11921;SDS011;6021;51.182;3.160;2023-07-09T06:40:49;10.10;;;5.10;;
11921;SDS011;6021;51.182;3.160;2023-07-09T06:43:17;10.70;;;4.93;;
11921;SDS011;6021;51.182;3.160;2023-07-09T06:45:57;9.07;;;5.27;;
11921;SDS011;6021;51.182;3.160;2023-07-09T06:48:26;6.80;;;5.00;;
11921;SDS011;6021;51.182;3.160;2023-07-09T06:50:56;9.90;;;5.30;;
11921;SDS011;6021;51.182;3.160;2023-07-09T06:53:26;8.30;;;4.90;;
11921;SDS011;6021;51.182;3.160;2023-07-09T06:55:56;8.13;;;5.40;;
11921;SDS011;6021;51.182;3.160;2023-07-09T06:58:27;7.80;;;5.27;;
11921;SDS011;6021;51.182;3.160;2023-07-09T07:00:59;10.33;;;5.50;;
11921;SDS011;6021;51.182;3.160;2023-07-09T07:03:32;11.43;;;5.57;;
11921;SDS011;6021;51.182;3.160;2023-07-09T07:06:01;7.23;;;4.70;;
11921;SDS011;6021;51.182;3.160;2023-07-09T07:08:29;6.17;;;4.83;;
11921;SDS011;6021;51.182;3.160;2023-07-09T07:10:59;8.97;;;5.10;;
11921;SDS011;6021;51.182;3.160;2023-07-09T07:13:35;8.43;;;4.50;;
11921;SDS011;6021;51.182;3.160;2023-07-09T07:16:00;9.53;;;4.40;;
11921;SDS011;6021;51.182;3.160;2023-07-09T07:18:30;6.03;;;4.43;;
11921;SDS011;6021;51.182;3.160;2023-07-09T07:20:58;8.03;;;4.10;;
11921;SDS011;6021;51.182;3.160;2023-07-09T07:23:28;6.83;;;3.90;;
11921;SDS011;6021;51.182;3.160;2023-07-09T07:25:56;7.83;;;4.03;;
11921;SDS011;6021;51.182;3.160;2023-07-09T07:28:25;5.20;;;3.70;;
11921;SDS011;6021;51.182;3.160;2023-07-09T07:31:06;8.00;;;4.20;;
11921;SDS011;6021;51.182;3.160;2023-07-09T07:33:30;8.40;;;4.50;;
11921;SDS011;6021;51.182;3.160;2023-07-09T07:35:59;7.30;;;4.90;;
11921;SDS011;6021;51.182;3.160;2023-07-09T07:38:27;6.13;;;4.57;;
11921;SDS011;6021;51.182;3.160;2023-07-09T07:40:56;7.27;;;5.70;;
11921;SDS011;6021;51.182;3.160;2023-07-09T07:43:24;8.27;;;5.17;;
11921;SDS011;6021;51.182;3.160;2023-07-09T07:45:53;7.70;;;5.40;;
11921;SDS011;6021;51.182;3.160;2023-07-09T07:48:21;6.00;;;4.60;;
11921;SDS011;6021;51.182;3.160;2023-07-09T07:50:50;7.47;;;5.47;;
11921;SDS011;6021;51.182;3.160;2023-07-09T07:53:18;10.73;;;5.23;;
11921;SDS011;6021;51.182;3.160;2023-07-09T07:55:46;11.00;;;5.70;;
11921;SDS011;6021;51.182;3.160;2023-07-09T07:58:15;12.17;;;5.80;;
11921;SDS011;6021;51.182;3.160;2023-07-09T08:00:44;10.30;;;5.50;;
11921;SDS011;6021;51.182;3.160;2023-07-09T08:03:12;10.47;;;5.63;;
11921;SDS011;6021;51.182;3.160;2023-07-09T08:05:40;11.47;;;6.03;;
11921;SDS011;6021;51.182;3.160;2023-07-09T08:08:09;12.57;;;6.17;;
11921;SDS011;6021;51.182;3.160;2023-07-09T08:10:38;11.30;;;6.30;;
11921;SDS011;6021;51.182;3.160;2023-07-09T08:13:06;9.97;;;5.10;;
11921;SDS011;6021;51.182;3.160;2023-07-09T08:15:35;10.57;;;6.40;;
11921;SDS011;6021;51.182;3.160;2023-07-09T08:18:04;10.20;;;6.13;;
11921;SDS011;6021;51.182;3.160;2023-07-09T08:20:32;11.13;;;6.73;;
11921;SDS011;6021;51.182;3.160;2023-07-09T08:23:00;11.03;;;5.60;;
11921;SDS011;6021;51.182;3.160;2023-07-09T08:25:29;8.43;;;5.07;;
11921;SDS011;6021;51.182;3.160;2023-07-09T08:27:57;9.97;;;4.90;;
11921;SDS011;6021;51.182;3.160;2023-07-09T08:30:26;8.53;;;5.13;;
11921;SDS011;6021;51.182;3.160;2023-07-09T08:32:54;10.03;;;5.20;;
11921;SDS011;6021;51.182;3.160;2023-07-09T08:35:23;10.90;;;5.70;;
11921;SDS011;6021;51.182;3.160;2023-07-09T08:37:52;9.40;;;5.97;;
11921;SDS011;6021;51.182;3.160;2023-07-09T08:40:20;14.40;;;5.90;;
11921;SDS011;6021;51.182;3.160;2023-07-09T08:42:49;10.30;;;5.40;;
11921;SDS011;6021;51.182;3.160;2023-07-09T08:45:24;10.23;;;5.20;;
11921;SDS011;6021;51.182;3.160;2023-07-09T08:47:59;9.87;;;5.27;;
11921;SDS011;6021;51.182;3.160;2023-07-09T08:50:32;8.20;;;4.60;;
11921;SDS011;6021;51.182;3.160;2023-07-09T08:53:07;8.30;;;4.83;;
11921;SDS011;6021;51.182;3.160;2023-07-09T08:55:40;8.57;;;4.80;;
11921;SDS011;6021;51.182;3.160;2023-07-09T08:58:26;9.87;;;4.77;;
11921;SDS011;6021;51.182;3.160;2023-07-09T09:01:00;8.63;;;4.50;;
11921;SDS011;6021;51.182;3.160;2023-07-09T09:03:49;6.73;;;4.37;;
11921;SDS011;6021;51.182;3.160;2023-07-09T09:06:26;8.20;;;4.30;;
11921;SDS011;6021;51.182;3.160;2023-07-09T09:09:22;5.63;;;4.27;;
11921;SDS011;6021;51.182;3.160;2023-07-09T09:14:32;5.90;;;4.33;;
11921;SDS011;6021;51.182;3.160;2023-07-09T09:17:03;7.03;;;4.50;;
11921;SDS011;6021;51.182;3.160;2023-07-09T09:19:37;8.50;;;5.00;;
11921;SDS011;6021;51.182;3.160;2023-07-09T09:22:07;8.73;;;4.70;;
11921;SDS011;6021;51.182;3.160;2023-07-09T09:24:41;9.03;;;4.67;;
11921;SDS011;6021;51.182;3.160;2023-07-09T09:27:27;9.50;;;5.00;;
11921;SDS011;6021;51.182;3.160;2023-07-09T09:29:55;8.30;;;5.20;;
11921;SDS011;6021;51.182;3.160;2023-07-09T09:32:27;9.33;;;5.20;;
11921;SDS011;6021;51.182;3.160;2023-07-09T09:34:57;7.37;;;4.97;;
11921;SDS011;6021;51.182;3.160;2023-07-09T09:37:29;8.67;;;4.97;;
11921;SDS011;6021;51.182;3.160;2023-07-09T09:39:59;7.50;;;5.03;;
11921;SDS011;6021;51.182;3.160;2023-07-09T09:42:29;7.43;;;4.83;;
11921;SDS011;6021;51.182;3.160;2023-07-09T09:44:59;10.13;;;5.07;;
11921;SDS011;6021;51.182;3.160;2023-07-09T09:47:29;8.23;;;5.60;;
11921;SDS011;6021;51.182;3.160;2023-07-09T09:49:58;11.70;;;7.23;;
11921;SDS011;6021;51.182;3.160;2023-07-09T09:52:28;13.23;;;8.23;;
11921;SDS011;6021;51.182;3.160;2023-07-09T09:55:05;11.83;;;8.00;;
11921;SDS011;6021;51.182;3.160;2023-07-09T09:57:31;14.10;;;8.30;;
11921;SDS011;6021;51.182;3.160;2023-07-09T09:59:59;11.63;;;8.50;;
11921;SDS011;6021;51.182;3.160;2023-07-09T10:02:28;13.00;;;8.67;;
11921;SDS011;6021;51.182;3.160;2023-07-09T10:04:58;13.13;;;8.83;;
11921;SDS011;6021;51.182;3.160;2023-07-09T10:07:30;11.53;;;9.17;;
11921;SDS011;6021;51.182;3.160;2023-07-09T10:10:01;14.07;;;9.93;;
11921;SDS011;6021;51.182;3.160;2023-07-09T10:13:10;11.27;;;8.60;;
11921;SDS011;6021;51.182;3.160;2023-07-09T10:18:19;11.83;;;10.57;;
11921;SDS011;6021;51.182;3.160;2023-07-09T10:20:43;14.23;;;11.87;;
11921;SDS011;6021;51.182;3.160;2023-07-09T10:23:33;13.03;;;11.20;;
11921;SDS011;6021;51.182;3.160;2023-07-09T10:31:46;14.10;;;12.60;;
11921;SDS011;6021;51.182;3.160;2023-07-09T10:34:33;16.80;;;13.47;;
11921;SDS011;6021;51.182;3.160;2023-07-09T10:39:42;14.57;;;12.37;;
11921;SDS011;6021;51.182;3.160;2023-07-09T10:42:21;13.00;;;11.53;;
11921;SDS011;6021;51.182;3.160;2023-07-09T10:45:02;14.43;;;11.63;;
11921;SDS011;6021;51.182;3.160;2023-07-09T10:47:45;11.47;;;9.70;;
11921;SDS011;6021;51.182;3.160;2023-07-09T10:50:29;9.70;;;8.70;;
11921;SDS011;6021;51.182;3.160;2023-07-09T10:53:05;11.07;;;9.70;;
11921;SDS011;6021;51.182;3.160;2023-07-09T10:55:32;9.30;;;8.40;;
11921;SDS011;6021;51.182;3.160;2023-07-09T10:58:03;9.23;;;8.33;;
11921;SDS011;6021;51.182;3.160;2023-07-09T11:00:34;11.67;;;9.50;;
11921;SDS011;6021;51.182;3.160;2023-07-09T11:05:45;9.00;;;7.97;;
11921;SDS011;6021;51.182;3.160;2023-07-09T11:08:21;10.97;;;8.60;;
11921;SDS011;6021;51.182;3.160;2023-07-09T11:10:56;10.93;;;9.00;;
11921;SDS011;6021;51.182;3.160;2023-07-09T11:13:26;10.93;;;8.33;;
11921;SDS011;6021;51.182;3.160;2023-07-09T11:16:04;10.47;;;8.37;;
11921;SDS011;6021;51.182;3.160;2023-07-09T11:18:35;9.03;;;7.00;;
11921;SDS011;6021;51.182;3.160;2023-07-09T11:21:04;7.73;;;6.53;;
11921;SDS011;6021;51.182;3.160;2023-07-09T11:23:43;9.40;;;6.43;;
11921;SDS011;6021;51.182;3.160;2023-07-09T11:31:36;8.63;;;6.37;;
11921;SDS011;6021;51.182;3.160;2023-07-09T11:36:49;7.67;;;6.00;;
11921;SDS011;6021;51.182;3.160;2023-07-09T11:41:59;9.43;;;6.30;;
11921;SDS011;6021;51.182;3.160;2023-07-09T11:44:28;9.27;;;6.10;;
11921;SDS011;6021;51.182;3.160;2023-07-09T11:50:00;7.43;;;4.93;;
11921;SDS011;6021;51.182;3.160;2023-07-09T11:52:34;7.60;;;5.30;;
11921;SDS011;6021;51.182;3.160;2023-07-09T11:55:19;8.90;;;6.30;;
11921;SDS011;6021;51.182;3.160;2023-07-09T11:57:58;7.93;;;6.00;;
11921;SDS011;6021;51.182;3.160;2023-07-09T12:00:28;6.57;;;5.20;;
11921;SDS011;6021;51.182;3.160;2023-07-09T12:02:59;6.40;;;5.03;;
11921;SDS011;6021;51.182;3.160;2023-07-09T12:05:28;6.13;;;4.43;;
11921;SDS011;6021;51.182;3.160;2023-07-09T12:07:57;6.63;;;4.93;;
11921;SDS011;6021;51.182;3.160;2023-07-09T12:10:27;7.90;;;5.00;;
11921;SDS011;6021;51.182;3.160;2023-07-09T12:12:58;6.47;;;4.90;;
11921;SDS011;6021;51.182;3.160;2023-07-09T12:15:27;7.30;;;4.90;;
11921;SDS011;6021;51.182;3.160;2023-07-09T12:17:59;7.10;;;4.77;;
11921;SDS011;6021;51.182;3.160;2023-07-09T12:20:33;7.03;;;4.93;;
11921;SDS011;6021;51.182;3.160;2023-07-09T12:25:52;7.10;;;5.10;;
11921;SDS011;6021;51.182;3.160;2023-07-09T12:28:21;7.23;;;5.50;;
11921;SDS011;6021;51.182;3.160;2023-07-09T12:30:51;6.23;;;5.00;;
11921;SDS011;6021;51.182;3.160;2023-07-09T12:33:24;6.47;;;4.80;;
11921;SDS011;6021;51.182;3.160;2023-07-09T12:35:57;6.60;;;5.07;;
11921;SDS011;6021;51.182;3.160;2023-07-09T12:38:29;8.23;;;5.40;;
11921;SDS011;6021;51.182;3.160;2023-07-09T12:40:59;8.90;;;5.20;;
11921;SDS011;6021;51.182;3.160;2023-07-09T12:43:30;8.10;;;5.47;;
11921;SDS011;6021;51.182;3.160;2023-07-09T12:45:59;7.87;;;4.90;;
11921;SDS011;6021;51.182;3.160;2023-07-09T12:48:29;7.23;;;5.53;;
11921;SDS011;6021;51.182;3.160;2023-07-09T12:50:59;7.87;;;5.60;;
11921;SDS011;6021;51.182;3.160;2023-07-09T12:53:28;8.07;;;5.80;;
11921;SDS011;6021;51.182;3.160;2023-07-09T12:55:58;9.00;;;5.97;;
11921;SDS011;6021;51.182;3.160;2023-07-09T12:58:33;7.70;;;5.60;;
11921;SDS011;6021;51.182;3.160;2023-07-09T13:01:13;8.87;;;5.20;;
11921;SDS011;6021;51.182;3.160;2023-07-09T13:03:36;6.20;;;4.20;;
11921;SDS011;6021;51.182;3.160;2023-07-09T13:06:06;6.33;;;3.47;;
11921;SDS011;6021;51.182;3.160;2023-07-09T13:08:42;6.30;;;3.50;;
11921;SDS011;6021;51.182;3.160;2023-07-09T13:11:20;5.97;;;3.70;;
11921;SDS011;6021;51.182;3.160;2023-07-09T13:13:58;3.87;;;3.27;;
11921;SDS011;6021;51.182;3.160;2023-07-09T13:16:28;6.37;;;3.60;;
11921;SDS011;6021;51.182;3.160;2023-07-09T13:18:56;5.50;;;3.50;;
11921;SDS011;6021;51.182;3.160;2023-07-09T13:21:25;5.73;;;2.90;;
11921;SDS011;6021;51.182;3.160;2023-07-09T13:23:53;5.83;;;3.10;;
11921;SDS011;6021;51.182;3.160;2023-07-09T13:26:23;4.40;;;2.70;;
11921;SDS011;6021;51.182;3.160;2023-07-09T13:28:51;6.43;;;2.90;;
11921;SDS011;6021;51.182;3.160;2023-07-09T13:31:19;5.40;;;2.97;;
11921;SDS011;6021;51.182;3.160;2023-07-09T13:33:55;4.87;;;2.87;;
11921;SDS011;6021;51.182;3.160;2023-07-09T13:36:25;4.93;;;2.50;;
11921;SDS011;6021;51.182;3.160;2023-07-09T13:38:54;4.00;;;2.20;;
11921;SDS011;6021;51.182;3.160;2023-07-09T13:41:22;4.30;;;2.40;;
11921;SDS011;6021;51.182;3.160;2023-07-09T13:43:52;4.57;;;2.50;;
11921;SDS011;6021;51.182;3.160;2023-07-09T13:46:20;6.30;;;2.67;;
11921;SDS011;6021;51.182;3.160;2023-07-09T13:48:50;4.97;;;2.30;;
11921;SDS011;6021;51.182;3.160;2023-07-09T13:51:20;5.77;;;2.63;;
11921;SDS011;6021;51.182;3.160;2023-07-09T13:53:50;6.87;;;2.67;;
11921;SDS011;6021;51.182;3.160;2023-07-09T13:56:21;6.03;;;2.40;;
11921;SDS011;6021;51.182;3.160;2023-07-09T13:58:50;3.13;;;1.93;;
11921;SDS011;6021;51.182;3.160;2023-07-09T14:01:20;4.23;;;2.30;;
11921;SDS011;6021;51.182;3.160;2023-07-09T14:03:49;6.50;;;2.23;;
11921;SDS011;6021;51.182;3.160;2023-07-09T14:06:18;5.67;;;2.50;;
11921;SDS011;6021;51.182;3.160;2023-07-09T14:08:47;5.23;;;2.00;;
11921;SDS011;6021;51.182;3.160;2023-07-09T14:11:15;5.27;;;2.00;;
11921;SDS011;6021;51.182;3.160;2023-07-09T14:16:38;4.83;;;2.00;;
11921;SDS011;6021;51.182;3.160;2023-07-09T14:19:09;3.97;;;2.00;;
11921;SDS011;6021;51.182;3.160;2023-07-09T14:21:37;7.40;;;2.10;;
11921;SDS011;6021;51.182;3.160;2023-07-09T14:24:16;3.37;;;1.83;;
11921;SDS011;6021;51.182;3.160;2023-07-09T14:26:50;3.97;;;1.80;;
11921;SDS011;6021;51.182;3.160;2023-07-09T14:29:20;5.50;;;2.07;;
11921;SDS011;6021;51.182;3.160;2023-07-09T14:31:49;4.30;;;2.00;;
11921;SDS011;6021;51.182;3.160;2023-07-09T14:34:20;4.83;;;2.10;;
11921;SDS011;6021;51.182;3.160;2023-07-09T14:36:51;2.80;;;1.60;;
11921;SDS011;6021;51.182;3.160;2023-07-09T14:39:21;3.33;;;1.90;;
11921;SDS011;6021;51.182;3.160;2023-07-09T14:41:50;5.10;;;1.93;;
11921;SDS011;6021;51.182;3.160;2023-07-09T14:44:24;4.20;;;1.70;;
11921;SDS011;6021;51.182;3.160;2023-07-09T14:46:50;4.60;;;2.20;;
11921;SDS011;6021;51.182;3.160;2023-07-09T14:49:20;3.50;;;1.63;;
11921;SDS011;6021;51.182;3.160;2023-07-09T14:51:50;4.43;;;2.00;;
11921;SDS011;6021;51.182;3.160;2023-07-09T14:54:20;4.87;;;2.10;;
11921;SDS011;6021;51.182;3.160;2023-07-09T14:56:54;5.90;;;1.93;;
11921;SDS011;6021;51.182;3.160;2023-07-09T14:59:23;5.17;;;1.90;;
11921;SDS011;6021;51.182;3.160;2023-07-09T15:01:52;4.97;;;1.90;;
11921;SDS011;6021;51.182;3.160;2023-07-09T15:06:59;3.13;;;1.63;;
11921;SDS011;6021;51.182;3.160;2023-07-09T15:09:28;4.00;;;1.60;;
11921;SDS011;6021;51.182;3.160;2023-07-09T15:11:57;3.87;;;1.70;;
11921;SDS011;6021;51.182;3.160;2023-07-09T15:14:26;4.07;;;1.70;;
11921;SDS011;6021;51.182;3.160;2023-07-09T15:16:55;3.43;;;1.80;;
11921;SDS011;6021;51.182;3.160;2023-07-09T15:19:24;5.00;;;2.00;;
11921;SDS011;6021;51.182;3.160;2023-07-09T15:21:53;3.67;;;1.80;;
11921;SDS011;6021;51.182;3.160;2023-07-09T15:24:24;4.03;;;1.60;;
11921;SDS011;6021;51.182;3.160;2023-07-09T15:26:55;4.40;;;1.93;;
11921;SDS011;6021;51.182;3.160;2023-07-09T15:29:26;4.70;;;2.23;;
11921;SDS011;6021;51.182;3.160;2023-07-09T15:31:55;5.93;;;2.50;;
11921;SDS011;6021;51.182;3.160;2023-07-09T15:34:26;4.17;;;2.23;;
11921;SDS011;6021;51.182;3.160;2023-07-09T15:36:54;4.53;;;2.40;;
11921;SDS011;6021;51.182;3.160;2023-07-09T15:39:23;3.10;;;2.30;;
11921;SDS011;6021;51.182;3.160;2023-07-09T15:41:52;5.67;;;2.80;;
11921;SDS011;6021;51.182;3.160;2023-07-09T15:44:22;4.37;;;2.37;;
11921;SDS011;6021;51.182;3.160;2023-07-09T15:46:51;4.43;;;1.90;;
11921;SDS011;6021;51.182;3.160;2023-07-09T15:49:22;4.80;;;2.10;;
11921;SDS011;6021;51.182;3.160;2023-07-09T15:51:51;5.70;;;2.30;;